Elgood, West Virginia
Current Conditions -  °F | °C
As of 11:52 AM on Thursday 23 Oct 2014 (Local Time) from KBLF Reporting Station
Overcast Overcast  
Wind Chill: 41°   Ceiling: 1300
Heat Index: 45°   Visibility: 10mi
Dew Point: 37°   Wind: 8mph
Humidity: 74%   Direction: 310°NW
Pressure: 30.18"   Gusts: NA
Location:  37.3649°N, 81.0293°W
Report Text: KBLF 231552Z AUTO 31007KT 10SM OVC013 07/03 A3018 RMK AO2 SLP218 T00720028
Loading
Personal Weather Stations






























Interactive Weather Map
Tropical Storm Tracking
New forecast layout! Learn more

10-Day Weather Forecast

Advertisements
Track Severe Weather on mobile